createdAt,value
2022-07-28T00:00:16.618Z,91.20
2022-07-28T00:02:43.614Z,91.30
2022-07-28T00:05:11.025Z,91.60
2022-07-28T00:07:37.959Z,91.80
2022-07-28T00:10:05.412Z,91.90
2022-07-28T00:12:32.417Z,92.20
2022-07-28T00:14:59.306Z,92.20
2022-07-28T00:17:26.136Z,92.60
2022-07-28T00:19:53.054Z,92.80
2022-07-28T00:22:19.969Z,92.90
2022-07-28T00:24:46.903Z,93.00
2022-07-28T00:27:19.262Z,92.90
2022-07-28T00:29:51.177Z,92.70
2022-07-28T00:32:51.885Z,92.50
2022-07-28T00:35:30.863Z,92.20
2022-07-28T00:38:24.184Z,91.90
2022-07-28T00:44:11.043Z,91.60
2022-07-28T00:46:38.581Z,91.40
2022-07-28T00:49:22.631Z,91.40
2022-07-28T00:52:18.922Z,91.30
2022-07-28T00:54:45.906Z,91.20
2022-07-28T00:57:12.852Z,91.10
2022-07-28T00:59:39.756Z,91.10
2022-07-28T01:02:06.838Z,91.30
2022-07-28T01:04:33.769Z,91.50
2022-07-28T01:07:26.855Z,91.50
2022-07-28T01:10:08.550Z,91.70
2022-07-28T01:12:58.575Z,92.00
2022-07-28T01:15:44.422Z,92.10
2022-07-28T01:18:26.205Z,92.60
2022-07-28T01:21:18.312Z,92.90
2022-07-28T01:24:35.484Z,93.40
2022-07-28T01:27:41.527Z,93.70
2022-07-28T01:30:34.027Z,94.10
2022-07-28T01:33:47.120Z,94.40
2022-07-28T01:36:35.966Z,94.60
2022-07-28T01:39:10.150Z,94.80
2022-07-28T01:41:40.810Z,95.00
2022-07-28T01:44:16.510Z,95.20
2022-07-28T01:46:56.755Z,95.30
2022-07-28T01:49:46.581Z,95.60
2022-07-28T01:52:20.649Z,95.70
2022-07-28T01:55:05.019Z,95.70
2022-07-28T01:57:35.505Z,95.70
2022-07-28T02:00:19.510Z,95.70
2022-07-28T02:02:50.688Z,95.70
2022-07-28T02:05:26.705Z,95.70
2022-07-28T02:08:01.890Z,95.70
2022-07-28T02:10:44.440Z,95.70
2022-07-28T02:13:25.290Z,95.70
2022-07-28T02:18:57.507Z,95.70
2022-07-28T02:21:47.980Z,95.70
2022-07-28T02:24:19.791Z,95.70
2022-07-28T02:27:38.550Z,95.70
2022-07-28T02:30:18.213Z,95.70
2022-07-28T02:33:58.662Z,95.70
2022-07-28T02:36:26.531Z,95.70
2022-07-28T02:39:09.626Z,95.70
2022-07-28T02:44:48.372Z,95.70
2022-07-28T02:47:27.181Z,95.70
2022-07-28T02:50:19.422Z,95.70
2022-07-28T02:53:01.641Z,95.70
2022-07-28T02:56:01.879Z,95.70
2022-07-28T03:01:18.506Z,95.70
2022-07-28T03:03:55.770Z,95.70
2022-07-28T03:06:30.224Z,95.70
2022-07-28T03:12:18.174Z,95.70
2022-07-28T03:14:54.207Z,95.70
2022-07-28T03:20:29.241Z,95.70
2022-07-28T03:23:23.969Z,95.70
2022-07-28T03:26:04.938Z,95.70
2022-07-28T03:28:45.660Z,95.70
2022-07-28T03:31:23.864Z,95.70
2022-07-28T03:34:08.573Z,95.70
2022-07-28T03:37:06.472Z,95.70
2022-07-28T03:42:57.446Z,95.70
2022-07-28T03:46:15.954Z,95.70
2022-07-28T03:48:53.271Z,95.70
2022-07-28T03:52:18.475Z,95.70
2022-07-28T03:55:14.228Z,95.70
2022-07-28T04:00:36.424Z,95.70
2022-07-28T04:03:22.037Z,95.70
2022-07-28T04:09:30.197Z,95.70
2022-07-28T04:12:12.693Z,95.70
2022-07-28T04:19:23.435Z,95.70
2022-07-28T04:24:45.940Z,95.70
2022-07-28T04:27:17.319Z,95.70
2022-07-28T04:29:50.546Z,95.70
2022-07-28T04:32:23.630Z,95.70
2022-07-28T04:35:15.318Z,95.70
2022-07-28T04:43:37.504Z,95.70
2022-07-28T04:46:50.205Z,95.70
2022-07-28T04:52:26.542Z,95.70
2022-07-28T04:55:13.806Z,95.70
2022-07-28T05:03:36.487Z,95.70
2022-07-28T05:06:20.074Z,95.70
2022-07-28T05:09:10.848Z,95.70
2022-07-28T05:11:56.179Z,95.70
2022-07-28T05:14:37.833Z,95.70
2022-07-28T05:17:10.684Z,95.70
2022-07-28T05:20:16.931Z,95.70
2022-07-28T05:23:06.746Z,95.70
2022-07-28T05:25:46.033Z,95.70
2022-07-28T05:31:47.540Z,95.70
2022-07-28T05:34:17.947Z,95.70
2022-07-28T05:37:06.692Z,95.70
2022-07-28T05:42:58.162Z,95.70
2022-07-28T05:45:45.444Z,95.70
2022-07-28T05:48:43.932Z,95.70
2022-07-28T05:51:18.364Z,95.70
2022-07-28T05:54:01.683Z,95.70
2022-07-28T05:59:45.570Z,95.70
2022-07-28T06:02:24.085Z,95.40
2022-07-28T06:05:12.756Z,95.50
2022-07-28T06:08:10.146Z,95.70
2022-07-28T06:11:00.856Z,95.70
2022-07-28T06:13:40.567Z,95.70
2022-07-28T06:16:20.895Z,95.70
2022-07-28T06:19:05.638Z,95.70
2022-07-28T06:21:39.241Z,95.70
2022-07-28T06:24:15.107Z,95.40
2022-07-28T06:27:17.729Z,95.30
2022-07-28T06:30:30.085Z,95.00
2022-07-28T06:33:31.366Z,94.20
2022-07-28T06:36:24.976Z,93.70
2022-07-28T06:38:54.031Z,92.70
2022-07-28T06:41:28.869Z,92.30
2022-07-28T06:43:59.281Z,92.00
2022-07-28T06:46:41.730Z,91.60
2022-07-28T06:49:40.111Z,91.10
2022-07-28T06:52:45.295Z,90.30
2022-07-28T06:58:16.501Z,89.80
2022-07-28T07:00:55.817Z,89.30
2022-07-28T07:03:52.047Z,88.60
2022-07-28T07:09:05.288Z,88.60
2022-07-28T07:11:32.142Z,88.00
2022-07-28T07:14:04.736Z,87.80
2022-07-28T07:19:17.190Z,87.90
2022-07-28T07:21:44.614Z,88.00
2022-07-28T07:24:11.928Z,87.20
2022-07-28T07:26:39.533Z,86.70
2022-07-28T07:29:07.613Z,86.60
2022-07-28T07:31:35.613Z,86.10
2022-07-28T07:34:03.281Z,85.90
2022-07-28T07:40:43.384Z,85.90
2022-07-28T07:43:37.528Z,86.40
2022-07-28T07:46:28.743Z,85.60
2022-07-28T07:48:58.681Z,83.40
2022-07-28T07:51:25.675Z,83.10
2022-07-28T07:53:52.610Z,83.10
2022-07-28T07:56:19.432Z,84.10
2022-07-28T07:58:46.293Z,83.50
2022-07-28T08:01:13.337Z,82.20
2022-07-28T08:03:40.204Z,82.10
2022-07-28T08:06:07.238Z,82.00
2022-07-28T08:08:41.660Z,81.70
2022-07-28T08:11:13.387Z,81.10
2022-07-28T08:13:45.286Z,81.20
2022-07-28T08:16:12.261Z,81.90
2022-07-28T08:18:39.311Z,82.20
2022-07-28T08:21:06.436Z,82.60
2022-07-28T08:23:59.544Z,82.70
2022-07-28T08:26:33.889Z,82.00
2022-07-28T08:29:01.072Z,81.40
2022-07-28T08:31:28.178Z,80.70
2022-07-28T08:33:55.775Z,80.90
2022-07-28T08:36:23.042Z,79.50
2022-07-28T08:38:50.497Z,79.20
2022-07-28T08:41:33.406Z,79.40
2022-07-28T08:44:02.947Z,79.00
2022-07-28T08:46:36.260Z,79.60
2022-07-28T08:49:16.741Z,79.20
2022-07-28T08:51:44.933Z,77.50
2022-07-28T08:54:18.673Z,77.30
2022-07-28T08:59:50.130Z,76.50
2022-07-28T09:17:38.704Z,80.40
2022-07-28T09:20:10.859Z,80.80
2022-07-28T09:23:43.276Z,81.30
2022-07-28T09:29:58.546Z,81.10
2022-07-28T10:04:44.827Z,77.80
2022-07-28T10:11:24.490Z,75.10
2022-07-28T10:14:10.109Z,74.50
2022-07-28T10:16:53.367Z,76.50
2022-07-28T10:19:22.127Z,76.20
2022-07-28T10:24:34.839Z,77.60
2022-07-28T10:27:04.195Z,77.70
2022-07-28T10:29:44.945Z,77.60
2022-07-28T10:32:13.062Z,77.80
2022-07-28T10:34:52.295Z,77.20
2022-07-28T10:37:23.199Z,76.90
2022-07-28T10:39:58.151Z,78.30
2022-07-28T10:47:48.651Z,78.90
2022-07-28T10:50:16.297Z,78.30
2022-07-28T10:52:50.198Z,76.90
2022-07-28T10:55:46.778Z,77.20
2022-07-28T10:58:24.910Z,75.10
2022-07-28T11:00:57.907Z,74.70
2022-07-28T11:04:01.960Z,74.40
2022-07-28T11:09:15.957Z,75.90
2022-07-28T11:11:46.951Z,74.70
2022-07-28T11:17:37.388Z,71.80
2022-07-28T11:22:52.006Z,70.50
2022-07-28T11:25:22.709Z,71.50
2022-07-28T11:27:50.710Z,71.80
2022-07-28T11:30:33.247Z,73.80
2022-07-28T11:33:00.821Z,75.10
2022-07-28T11:35:29.477Z,75.90
2022-07-28T11:38:34.754Z,74.70
2022-07-28T11:44:25.190Z,75.40
2022-07-28T11:46:26.993Z,76.00
2022-07-28T11:50:12.156Z,75.30
2022-07-28T11:52:16.685Z,76.60
2022-07-28T11:54:48.432Z,75.90
2022-07-28T11:57:17.252Z,76.00
2022-07-28T12:02:29.169Z,76.90
2022-07-28T12:05:13.884Z,77.30
2022-07-28T12:08:52.015Z,78.00
2022-07-28T12:11:20.094Z,76.60
2022-07-28T12:13:47.837Z,77.90
2022-07-28T12:16:45.655Z,77.70
2022-07-28T12:19:11.360Z,77.00
2022-07-28T12:21:47.916Z,77.40
2022-07-28T12:25:13.909Z,77.80
2022-07-28T12:31:19.940Z,73.30
2022-07-28T12:33:51.187Z,72.70
2022-07-28T12:42:03.567Z,72.00
2022-07-28T12:44:40.931Z,72.00
2022-07-28T12:47:10.849Z,71.10
2022-07-28T12:49:39.365Z,71.30
2022-07-28T12:52:22.128Z,71.50
2022-07-28T12:59:10.651Z,70.70
2022-07-28T13:01:47.944Z,70.70
2022-07-28T13:04:16.635Z,71.10
2022-07-28T13:06:54.457Z,72.00
2022-07-28T13:09:23.385Z,72.20
2022-07-28T13:11:50.603Z,71.50
2022-07-28T13:14:18.040Z,71.70
2022-07-28T13:16:57.050Z,71.80
2022-07-28T13:19:24.269Z,72.40
2022-07-28T13:22:01.523Z,73.20
2022-07-28T13:24:30.697Z,71.30
2022-07-28T13:55:23.211Z,74.30
2022-07-28T14:06:37.350Z,72.50
2022-07-28T14:09:39.497Z,72.70
2022-07-28T14:15:33.716Z,70.20
2022-07-28T14:25:48.720Z,69.90
2022-07-28T14:47:57.896Z,67.70
2022-07-28T14:50:36.755Z,69.00
2022-07-28T14:53:51.798Z,69.20
2022-07-28T14:57:13.569Z,68.70
2022-07-28T14:59:22.447Z,68.30
2022-07-28T15:02:59.531Z,67.40
2022-07-28T15:05:53.770Z,67.30
2022-07-28T15:08:42.697Z,67.20
2022-07-28T15:14:35.173Z,66.20
2022-07-28T15:43:30.966Z,66.30
2022-07-28T15:57:48.514Z,65.90
2022-07-28T16:00:54.116Z,66.80
2022-07-28T16:03:51.917Z,66.30
2022-07-28T16:28:57.224Z,69.50
2022-07-28T16:31:48.902Z,69.60
2022-07-28T16:34:39.016Z,68.70
2022-07-28T16:37:38.844Z,67.70
2022-07-28T16:43:20.285Z,69.60
2022-07-28T16:46:17.780Z,69.90
2022-07-28T16:48:57.454Z,69.70
2022-07-28T16:51:34.937Z,69.70
2022-07-28T16:54:14.622Z,69.30
2022-07-28T16:56:48.898Z,69.30
2022-07-28T16:59:55.478Z,69.90
2022-07-28T17:11:18.024Z,74.70
2022-07-28T17:13:52.151Z,74.50
2022-07-28T17:16:22.372Z,74.90
2022-07-28T17:18:56.697Z,75.50
2022-07-28T17:21:52.345Z,74.40
2022-07-28T17:24:40.116Z,75.60
2022-07-28T17:30:39.234Z,76.60
2022-07-28T17:34:02.241Z,78.00
2022-07-28T17:36:52.069Z,77.20
2022-07-28T17:40:27.490Z,77.60
2022-07-28T17:46:21.870Z,78.70
2022-07-28T17:49:05.250Z,77.80
2022-07-28T17:52:12.517Z,78.40
2022-07-28T17:55:23.287Z,79.00
2022-07-28T17:58:25.575Z,79.40
2022-07-28T18:01:12.877Z,80.80
2022-07-28T18:04:00.429Z,80.50
2022-07-28T18:09:52.798Z,80.40
2022-07-28T18:12:57.311Z,80.90
2022-07-28T18:15:38.574Z,81.30
2022-07-28T18:18:06.558Z,81.30
2022-07-28T18:20:49.653Z,81.60
2022-07-28T18:23:40.292Z,81.80
2022-07-28T18:26:26.101Z,82.10
2022-07-28T18:29:01.788Z,82.40
2022-07-28T18:31:45.953Z,82.70
2022-07-28T18:35:01.186Z,83.30
2022-07-28T18:37:45.135Z,83.60
2022-07-28T18:40:21.312Z,83.80
2022-07-28T18:43:21.612Z,84.00
2022-07-28T18:45:57.462Z,84.30
2022-07-28T18:51:30.626Z,84.90
2022-07-28T18:54:18.691Z,85.30
2022-07-28T19:00:18.049Z,85.80
2022-07-28T19:02:53.382Z,86.00
2022-07-28T19:05:58.771Z,86.20
2022-07-28T19:08:42.065Z,86.60
2022-07-28T19:11:46.789Z,86.90
2022-07-28T19:14:36.207Z,86.90
2022-07-28T19:17:08.645Z,86.90
2022-07-28T19:19:56.768Z,87.10
2022-07-28T19:22:30.403Z,87.30
2022-07-28T19:25:03.030Z,87.60
2022-07-28T19:27:47.001Z,87.80
